createdAt,value
2023-05-02T00:00:09.916Z,30.98
2023-05-02T00:01:09.895Z,28.92
2023-05-02T00:02:10.529Z,30.78
2023-05-02T00:03:09.964Z,29.24
2023-05-02T00:04:10.051Z,32.89
2023-05-02T00:05:09.893Z,33.08
2023-05-02T00:06:10.106Z,33.21
2023-05-02T00:07:09.899Z,30.49
2023-05-02T00:08:09.922Z,29.01
2023-05-02T00:09:09.883Z,30.48
2023-05-02T00:10:09.874Z,31.96
2023-05-02T00:11:09.916Z,31.10
2023-05-02T00:12:09.911Z,26.11
2023-05-02T00:13:09.901Z,29.23
2023-05-02T00:14:09.913Z,29.41
2023-05-02T00:15:09.922Z,31.14
2023-05-02T00:16:09.921Z,31.40
2023-05-02T00:17:09.941Z,31.98
2023-05-02T00:18:10.023Z,34.54
2023-05-02T00:19:09.922Z,31.18
2023-05-02T00:20:09.913Z,32.84
2023-05-02T00:21:09.936Z,31.84
2023-05-02T00:22:09.919Z,32.65
2023-05-02T00:23:09.904Z,29.03
2023-05-02T00:24:09.917Z,31.51
2023-05-02T00:25:09.925Z,30.24
2023-05-02T00:26:10.042Z,35.07
2023-05-02T00:27:09.870Z,33.10
2023-05-02T00:28:09.905Z,30.22
2023-05-02T00:29:09.893Z,28.78
2023-05-02T00:30:09.916Z,31.29
2023-05-02T00:31:10.141Z,34.34
2023-05-02T00:32:09.874Z,29.24
2023-05-02T00:33:09.912Z,30.57
2023-05-02T00:34:09.885Z,27.50
2023-05-02T00:35:09.888Z,29.42
2023-05-02T00:36:09.894Z,32.95
2023-05-02T00:37:09.885Z,33.09
2023-05-02T00:38:09.886Z,32.81
2023-05-02T00:39:09.903Z,30.35
2023-05-02T00:40:09.876Z,34.13
2023-05-02T00:41:10.028Z,32.96
2023-05-02T00:42:09.910Z,30.39
2023-05-02T00:43:09.879Z,30.61
2023-05-02T00:44:09.882Z,31.18
2023-05-02T00:45:09.908Z,28.98
2023-05-02T00:46:10.107Z,28.15
2023-05-02T00:47:09.903Z,27.48
2023-05-02T00:48:09.944Z,32.64
2023-05-02T00:49:09.893Z,33.44
2023-05-02T00:50:09.902Z,30.93
2023-05-02T00:51:10.031Z,32.96
2023-05-02T00:52:09.904Z,29.47
2023-05-02T00:53:09.871Z,31.37
2023-05-02T00:54:09.886Z,33.08
2023-05-02T00:55:09.889Z,28.80
2023-05-02T00:56:10.073Z,33.26
2023-05-02T00:57:09.899Z,30.86
2023-05-02T00:58:09.907Z,31.78
2023-05-02T00:59:09.904Z,31.51
2023-05-02T01:00:09.903Z,32.42
2023-05-02T01:01:09.997Z,31.06
2023-05-02T01:02:10.055Z,32.22
2023-05-02T01:03:09.975Z,30.57
2023-05-02T01:04:10.027Z,33.74
2023-05-02T01:05:09.911Z,35.04
2023-05-02T01:06:10.147Z,29.92
2023-05-02T01:07:09.886Z,32.87
2023-05-02T01:08:09.911Z,31.66
2023-05-02T01:09:09.977Z,33.66
2023-05-02T01:10:09.921Z,32.98
2023-05-02T01:11:10.062Z,34.11
2023-05-02T01:12:09.934Z,33.81
2023-05-02T01:13:09.898Z,34.64
2023-05-02T01:14:09.911Z,29.93
2023-05-02T01:15:09.931Z,29.50
2023-05-02T01:16:10.097Z,29.54
2023-05-02T01:17:09.937Z,25.00
2023-05-02T01:18:09.983Z,30.04
2023-05-02T01:19:09.939Z,32.20
2023-05-02T01:20:10.031Z,32.58
2023-05-02T01:21:10.112Z,30.42
2023-05-02T01:22:09.950Z,33.39
2023-05-02T01:23:09.969Z,32.97
2023-05-02T01:24:09.965Z,29.10
2023-05-02T01:25:09.975Z,31.85
2023-05-02T01:26:10.055Z,32.28
2023-05-02T01:27:09.988Z,30.33
2023-05-02T01:28:09.993Z,31.07
2023-05-02T01:29:09.944Z,30.44
2023-05-02T01:30:09.977Z,33.30
2023-05-02T01:31:10.106Z,32.38
2023-05-02T01:32:10.018Z,30.40
2023-05-02T01:33:10.046Z,33.58
2023-05-02T01:34:10.016Z,33.20
2023-05-02T01:35:09.998Z,32.11
2023-05-02T01:36:10.038Z,31.56
2023-05-02T01:37:10.026Z,33.78
2023-05-02T01:38:10.012Z,32.28
2023-05-02T01:39:10.043Z,33.74
2023-05-02T01:40:10.016Z,33.62
2023-05-02T01:41:10.084Z,32.85
2023-05-02T01:42:10.040Z,34.34
2023-05-02T01:43:10.033Z,32.11
2023-05-02T01:44:10.045Z,30.82
2023-05-02T01:45:10.043Z,33.06
2023-05-02T01:46:10.080Z,32.61
2023-05-02T01:47:10.270Z,28.49
2023-05-02T01:48:10.157Z,32.13
2023-05-02T01:49:10.083Z,33.08
2023-05-02T01:50:10.080Z,33.81
2023-05-02T01:51:10.100Z,26.84
2023-05-02T01:52:10.207Z,32.30
2023-05-02T01:53:10.075Z,31.14
2023-05-02T01:54:10.067Z,31.64
2023-05-02T01:55:10.141Z,30.83
2023-05-02T01:56:10.605Z,32.71
2023-05-02T01:57:10.109Z,30.46
2023-05-02T01:58:10.122Z,31.88
2023-05-02T01:59:10.146Z,29.07
2023-05-02T02:00:10.076Z,32.01
2023-05-02T02:01:10.124Z,30.48
2023-05-02T02:02:10.100Z,33.39
2023-05-02T02:03:10.147Z,31.12
2023-05-02T02:04:10.131Z,31.99
2023-05-02T02:05:10.113Z,29.52
2023-05-02T02:06:10.623Z,32.78
2023-05-02T02:07:10.088Z,32.60
2023-05-02T02:08:10.094Z,32.34
2023-05-02T02:09:10.109Z,31.79
2023-05-02T02:10:10.135Z,29.24
2023-05-02T02:11:10.111Z,31.88
2023-05-02T02:12:10.123Z,31.85
2023-05-02T02:13:10.138Z,32.81
2023-05-02T02:14:10.148Z,32.03
2023-05-02T02:15:10.125Z,32.89
2023-05-02T02:16:10.148Z,30.61
2023-05-02T02:17:10.174Z,30.33
2023-05-02T02:18:10.210Z,31.90
2023-05-02T02:19:10.146Z,33.32
2023-05-02T02:20:10.192Z,29.78
2023-05-02T02:21:10.652Z,33.79
2023-05-02T02:22:10.149Z,32.32
2023-05-02T02:23:10.211Z,32.68
2023-05-02T02:24:10.231Z,34.81
2023-05-02T02:25:10.189Z,31.29
2023-05-02T02:26:10.589Z,28.84
2023-05-02T02:27:10.201Z,30.95
2023-05-02T02:28:10.255Z,31.98
2023-05-02T02:29:10.217Z,27.98
2023-05-02T02:30:10.234Z,32.64
2023-05-02T02:31:10.260Z,31.95
2023-05-02T02:32:10.213Z,34.12
2023-05-02T02:33:10.233Z,27.71
2023-05-02T02:34:10.283Z,31.90
2023-05-02T02:35:10.285Z,30.66
2023-05-02T02:36:10.294Z,29.97
2023-05-02T02:37:10.292Z,32.07
2023-05-02T02:38:10.264Z,32.25
2023-05-02T02:39:10.278Z,32.62
2023-05-02T02:40:10.267Z,33.32
2023-05-02T02:41:10.634Z,34.87
2023-05-02T02:42:10.291Z,31.46
2023-05-02T02:43:10.334Z,31.76
2023-05-02T02:44:12.204Z,31.32
2023-05-02T02:45:10.316Z,32.47
2023-05-02T02:46:10.354Z,32.78
2023-05-02T02:47:10.318Z,29.24
2023-05-02T02:48:10.295Z,30.19
2023-05-02T02:49:10.268Z,34.12
2023-05-02T02:50:10.279Z,33.79
2023-05-02T02:51:10.302Z,31.24
2023-05-02T02:52:10.302Z,28.52
2023-05-02T02:53:10.256Z,32.94
2023-05-02T02:54:25.482Z,33.02
2023-05-02T02:55:11.214Z,33.45
2023-05-02T02:56:10.736Z,33.44
2023-05-02T02:57:10.234Z,33.10
2023-05-02T02:58:10.205Z,30.74
2023-05-02T02:59:10.189Z,31.98
2023-05-02T03:00:10.205Z,29.86
2023-05-02T03:01:10.243Z,32.07
2023-05-02T03:02:10.424Z,31.35
2023-05-02T03:03:10.213Z,28.98
2023-05-02T03:04:10.165Z,29.73
2023-05-02T03:05:10.176Z,27.94
2023-05-02T03:06:10.221Z,30.68
2023-05-02T03:07:10.134Z,29.88
2023-05-02T03:08:10.152Z,30.74
2023-05-02T03:09:10.156Z,27.87
2023-05-02T03:10:10.118Z,31.92
2023-05-02T03:11:10.117Z,27.87
2023-05-02T03:12:10.115Z,32.20
2023-05-02T03:13:10.124Z,30.25
2023-05-02T03:14:10.085Z,29.01
2023-05-02T03:15:10.049Z,32.73
2023-05-02T03:16:10.156Z,31.01
2023-05-02T03:17:10.108Z,30.02
2023-05-02T03:18:10.079Z,26.76
2023-05-02T03:19:10.038Z,29.37
2023-05-02T03:20:10.081Z,32.04
2023-05-02T03:21:10.046Z,30.52
2023-05-02T03:22:10.140Z,30.93
2023-05-02T03:23:10.003Z,29.80
2023-05-02T03:24:10.015Z,30.26
2023-05-02T03:25:10.547Z,32.18
2023-05-02T03:26:10.029Z,28.53
2023-05-02T03:27:10.109Z,29.34
2023-05-02T03:28:10.028Z,30.35
2023-05-02T03:29:09.951Z,30.65
2023-05-02T03:30:09.967Z,31.18
2023-05-02T03:31:10.087Z,31.33
2023-05-02T03:32:10.068Z,28.70
2023-05-02T03:33:10.113Z,29.69
2023-05-02T03:34:10.011Z,31.43
2023-05-02T03:35:10.039Z,32.48
2023-05-02T03:36:10.034Z,30.70
2023-05-02T03:37:10.042Z,33.05
2023-05-02T03:38:10.050Z,28.60
2023-05-02T03:39:10.055Z,28.80
2023-05-02T03:40:10.040Z,31.35
2023-05-02T03:41:10.069Z,32.51
2023-05-02T03:42:10.018Z,33.67
2023-05-02T03:43:10.024Z,31.85
2023-05-02T03:44:10.096Z,33.03
2023-05-02T03:45:10.036Z,31.26
2023-05-02T03:46:10.032Z,30.79
2023-05-02T03:47:10.146Z,30.09
2023-05-02T03:48:10.142Z,31.25
2023-05-02T03:49:10.072Z,32.54
2023-05-02T03:50:10.103Z,31.33
2023-05-02T03:51:10.162Z,34.79
2023-05-02T03:52:10.149Z,33.75
2023-05-02T03:53:10.147Z,31.94
2023-05-02T03:54:10.108Z,33.75
2023-05-02T03:55:10.175Z,32.57
2023-05-02T03:56:10.174Z,33.09
2023-05-02T03:57:10.620Z,33.36
2023-05-02T03:58:10.211Z,35.50
2023-05-02T03:59:10.183Z,32.52
2023-05-02T04:00:10.165Z,28.44
2023-05-02T04:01:10.175Z,30.27
2023-05-02T04:02:10.254Z,33.65
2023-05-02T04:03:10.229Z,31.89
2023-05-02T04:04:10.287Z,31.14
2023-05-02T04:05:10.230Z,32.42
2023-05-02T04:06:10.236Z,33.69
2023-05-02T04:07:10.221Z,31.41
2023-05-02T04:08:10.256Z,32.31
2023-05-02T04:09:10.258Z,31.72
2023-05-02T04:10:10.273Z,32.52
2023-05-02T04:11:10.261Z,30.39
2023-05-02T04:12:10.293Z,34.17
2023-05-02T04:13:10.268Z,33.47
2023-05-02T04:14:10.365Z,31.83
2023-05-02T04:15:10.294Z,31.77
2023-05-02T04:16:10.397Z,32.08
2023-05-02T04:17:10.447Z,30.52
2023-05-02T04:18:10.393Z,30.58
2023-05-02T04:19:10.475Z,29.45
2023-05-02T04:20:10.374Z,31.03
2023-05-02T04:21:10.393Z,29.58
2023-05-02T04:22:10.653Z,31.86
2023-05-02T04:23:10.364Z,30.59
2023-05-02T04:24:10.466Z,32.81
2023-05-02T04:25:10.434Z,32.77
2023-05-02T04:26:10.402Z,29.50
2023-05-02T04:27:11.951Z,28.27
2023-05-02T04:28:10.591Z,32.47
2023-05-02T04:29:10.580Z,29.23
2023-05-02T04:30:10.614Z,29.65
2023-05-02T04:31:10.702Z,31.23
2023-05-02T04:32:10.650Z,32.99
2023-05-02T04:33:10.625Z,31.54
2023-05-02T04:34:10.627Z,32.68
2023-05-02T04:35:10.643Z,33.83
2023-05-02T04:36:10.651Z,32.32
2023-05-02T04:37:10.687Z,32.08
2023-05-02T04:38:10.699Z,31.65
2023-05-02T04:39:10.681Z,32.27
2023-05-02T04:40:10.647Z,27.80
2023-05-02T04:41:10.689Z,33.19
2023-05-02T04:42:10.745Z,29.28
2023-05-02T04:43:10.735Z,29.05
2023-05-02T04:44:10.735Z,29.74
2023-05-02T04:45:10.715Z,29.21
2023-05-02T04:46:10.814Z,30.46
2023-05-02T04:47:10.792Z,29.49
2023-05-02T04:48:10.834Z,31.44
2023-05-02T04:49:11.624Z,32.50
2023-05-02T04:50:10.806Z,30.14
2023-05-02T04:51:10.832Z,29.97
2023-05-02T04:52:10.842Z,29.37
2023-05-02T04:53:10.837Z,26.20
2023-05-02T04:54:10.851Z,25.97
2023-05-02T04:55:10.880Z,27.86
2023-05-02T04:56:10.889Z,26.88
2023-05-02T04:57:10.935Z,27.13
2023-05-02T04:58:10.915Z,27.41
2023-05-02T04:59:10.927Z,26.10
2023-05-02T05:00:10.950Z,26.43
2023-05-02T05:01:11.037Z,29.21
2023-05-02T05:02:11.105Z,26.13
2023-05-02T05:03:11.118Z,29.95
2023-05-02T05:04:11.194Z,30.06
2023-05-02T05:05:11.054Z,29.35
2023-05-02T05:06:11.098Z,29.84
2023-05-02T05:07:11.075Z,27.22
2023-05-02T05:08:11.079Z,28.33
2023-05-02T05:09:11.109Z,26.53
2023-05-02T05:10:11.134Z,26.95
2023-05-02T05:11:11.133Z,26.92
2023-05-02T05:12:11.144Z,31.04
2023-05-02T05:13:11.197Z,28.38
2023-05-02T05:14:11.179Z,29.65
2023-05-02T05:15:11.196Z,29.60
2023-05-02T05:16:11.257Z,27.97
2023-05-02T05:17:11.232Z,29.06
2023-05-02T05:18:11.313Z,29.74
2023-05-02T05:19:11.254Z,28.82
2023-05-02T05:20:11.306Z,30.20
2023-05-02T05:21:11.312Z,25.67
2023-05-02T05:22:11.300Z,28.25
2023-05-02T05:23:11.321Z,31.53
2023-05-02T05:24:11.328Z,29.96
2023-05-02T05:25:11.342Z,30.23
2023-05-02T05:26:11.387Z,30.39
2023-05-02T05:27:11.405Z,30.29
2023-05-02T05:28:11.370Z,28.30
2023-05-02T05:29:11.436Z,27.81
2023-05-02T05:30:11.442Z,26.45
2023-05-02T05:31:11.465Z,27.36
2023-05-02T05:32:11.538Z,27.29
2023-05-02T05:33:11.552Z,26.27
2023-05-02T05:34:11.544Z,27.27
2023-05-02T05:35:11.553Z,28.13
2023-05-02T05:36:11.552Z,31.47
2023-05-02T05:37:11.554Z,30.93
2023-05-02T05:38:11.525Z,28.94
2023-05-02T05:39:11.568Z,30.59
2023-05-02T05:40:11.582Z,30.13
2023-05-02T05:41:11.585Z,30.28
2023-05-02T05:42:11.585Z,29.97
2023-05-02T05:43:11.595Z,28.35
2023-05-02T05:44:11.596Z,30.26
2023-05-02T05:45:11.647Z,31.97
2023-05-02T05:46:11.603Z,29.93
2023-05-02T05:47:11.710Z,34.49
2023-05-02T05:48:11.784Z,36.52
2023-05-02T05:49:11.693Z,34.11
2023-05-02T05:50:11.725Z,37.05
2023-05-02T05:51:11.713Z,36.10
2023-05-02T05:52:11.747Z,34.97
2023-05-02T05:53:11.736Z,33.01
2023-05-02T05:54:11.748Z,35.22
2023-05-02T05:55:11.774Z,30.98
2023-05-02T05:56:11.787Z,34.14
2023-05-02T05:57:11.813Z,32.20
2023-05-02T05:58:11.800Z,29.56
2023-05-02T05:59:11.814Z,36.22
2023-05-02T06:00:11.901Z,35.91
2023-05-02T06:01:11.868Z,27.21
2023-05-02T06:02:11.914Z,35.01
2023-05-02T06:03:11.895Z,40.33
2023-05-02T06:04:12.000Z,47.84
2023-05-02T06:05:11.930Z,52.99
2023-05-02T06:06:11.925Z,56.18
2023-05-02T06:07:11.919Z,54.43
2023-05-02T06:08:11.885Z,59.76
2023-05-02T06:09:11.868Z,60.21
2023-05-02T06:10:11.902Z,60.90
2023-05-02T06:11:11.885Z,57.25
2023-05-02T06:12:11.888Z,59.35
2023-05-02T06:13:11.900Z,57.19
2023-05-02T06:14:11.909Z,58.29
2023-05-02T06:15:11.913Z,63.38
2023-05-02T06:16:11.907Z,58.47
2023-05-02T06:17:11.937Z,55.05
2023-05-02T06:18:11.957Z,56.03
2023-05-02T06:19:11.906Z,62.29
2023-05-02T06:20:11.945Z,66.84
2023-05-02T06:21:11.908Z,71.45
2023-05-02T06:22:12.218Z,61.41
2023-05-02T06:23:11.981Z,64.61
2023-05-02T06:24:12.064Z,73.06
2023-05-02T06:25:11.986Z,68.70
2023-05-02T06:26:11.980Z,75.16
2023-05-02T06:27:12.197Z,83.22
2023-05-02T06:28:12.004Z,69.94
2023-05-02T06:29:12.011Z,73.46
2023-05-02T06:30:12.025Z,83.10
2023-05-02T06:31:12.065Z,72.51
2023-05-02T06:32:12.088Z,72.48
2023-05-02T06:33:12.201Z,81.08
2023-05-02T06:34:12.155Z,85.94
2023-05-02T06:35:12.182Z,82.10
2023-05-02T06:36:12.225Z,88.53
2023-05-02T06:37:12.258Z,87.20
2023-05-02T06:38:12.730Z,89.74
2023-05-02T06:39:12.398Z,89.64
2023-05-02T06:40:12.442Z,89.12
2023-05-02T06:41:12.495Z,90.13
2023-05-02T06:42:12.560Z,90.89
2023-05-02T06:43:12.616Z,95.36
2023-05-02T06:44:12.682Z,95.99
2023-05-02T06:45:12.721Z,99.97
2023-05-02T06:46:12.784Z,96.73
2023-05-02T06:47:12.945Z,99.03
2023-05-02T06:48:12.947Z,95.84
2023-05-02T06:49:12.984Z,98.81
2023-05-02T06:50:13.005Z,96.00
2023-05-02T06:51:13.050Z,98.29
2023-05-02T06:52:13.684Z,99.57
2023-05-02T06:53:13.136Z,106.02
2023-05-02T06:54:13.168Z,105.87
2023-05-02T06:55:13.195Z,107.01
2023-05-02T06:56:13.348Z,105.66
2023-05-02T06:57:13.317Z,107.98
2023-05-02T06:58:13.348Z,110.13
2023-05-02T06:59:13.445Z,113.19
2023-05-02T07:00:13.453Z,111.39
2023-05-02T07:01:13.550Z,115.80
2023-05-02T07:02:13.525Z,122.09
2023-05-02T07:03:13.661Z,121.48
2023-05-02T07:04:13.667Z,120.27
2023-05-02T07:05:13.704Z,120.91
2023-05-02T07:06:13.780Z,120.22
2023-05-02T07:07:13.763Z,130.08
2023-05-02T07:08:13.822Z,127.66
2023-05-02T07:09:13.844Z,129.11
2023-05-02T07:10:13.846Z,125.96
2023-05-02T07:11:13.887Z,131.27
2023-05-02T07:12:13.940Z,134.73
2023-05-02T07:13:13.981Z,135.03
2023-05-02T07:14:14.001Z,133.17
2023-05-02T07:15:14.003Z,131.66
2023-05-02T07:16:14.086Z,135.61
2023-05-02T07:17:14.118Z,135.27
2023-05-02T07:18:14.292Z,136.34
2023-05-02T07:19:14.179Z,143.35
2023-05-02T07:20:14.143Z,143.73
2023-05-02T07:21:14.195Z,139.89
2023-05-02T07:22:14.226Z,138.53
2023-05-02T07:23:14.298Z,131.44
2023-05-02T07:24:14.307Z,127.11
2023-05-02T07:25:14.374Z,124.65
2023-05-02T07:26:14.401Z,121.89
2023-05-02T07:27:14.489Z,121.42
2023-05-02T07:28:14.545Z,119.81
2023-05-02T07:29:14.634Z,114.27
2023-05-02T07:30:14.612Z,109.15
2023-05-02T07:31:14.732Z,101.49
2023-05-02T07:32:14.701Z,104.48
2023-05-02T07:33:14.700Z,107.23
2023-05-02T07:34:14.630Z,103.82
2023-05-02T07:35:14.619Z,113.42
2023-05-02T07:36:14.632Z,119.59
2023-05-02T07:37:14.657Z,113.75
2023-05-02T07:38:14.664Z,111.39
2023-05-02T07:39:14.670Z,107.03
2023-05-02T07:40:14.674Z,110.96
2023-05-02T07:41:14.772Z,102.81
2023-05-02T07:42:14.681Z,99.80
2023-05-02T07:43:14.679Z,102.27
2023-05-02T07:44:14.756Z,100.91
2023-05-02T07:45:14.729Z,98.86
2023-05-02T07:46:14.889Z,94.13
2023-05-02T07:47:14.721Z,98.25
2023-05-02T07:48:14.762Z,96.98
2023-05-02T07:49:14.805Z,96.13
2023-05-02T07:50:14.880Z,97.51
2023-05-02T07:51:15.802Z,97.73
2023-05-02T07:52:14.784Z,95.74
2023-05-02T07:53:14.789Z,97.95
2023-05-02T07:54:14.801Z,91.81
2023-05-02T07:55:14.774Z,95.05
2023-05-02T07:56:14.773Z,89.29
2023-05-02T07:57:14.756Z,88.43
2023-05-02T07:58:14.761Z,84.41
2023-05-02T07:59:14.744Z,74.10
2023-05-02T08:00:14.727Z,63.34
2023-05-02T08:01:14.739Z,63.56
2023-05-02T08:02:14.740Z,59.61
2023-05-02T08:03:14.951Z,59.12
2023-05-02T08:04:15.032Z,64.82
2023-05-02T08:05:14.858Z,59.25
2023-05-02T08:06:14.757Z,57.08
2023-05-02T08:07:14.688Z,54.27
2023-05-02T08:08:14.737Z,57.99
2023-05-02T08:09:14.806Z,60.95
2023-05-02T08:10:14.822Z,62.28
2023-05-02T08:11:14.881Z,75.58
2023-05-02T08:12:14.871Z,95.58
2023-05-02T08:13:14.958Z,110.86
2023-05-02T08:14:14.934Z,121.26
2023-05-02T08:15:14.987Z,143.21
2023-05-02T08:16:14.965Z,182.79
2023-05-02T08:17:14.975Z,195.37
2023-05-02T08:18:15.101Z,192.17
2023-05-02T08:19:14.987Z,190.39
2023-05-02T08:20:14.993Z,200.22
2023-05-02T08:21:14.993Z,211.87
2023-05-02T08:22:14.970Z,218.93
2023-05-02T08:23:15.020Z,232.21
2023-05-02T08:24:15.029Z,239.19
2023-05-02T08:25:14.956Z,239.98
2023-05-02T08:26:14.974Z,233.28
2023-05-02T08:27:15.017Z,239.93
2023-05-02T08:28:15.030Z,237.95
2023-05-02T08:29:15.074Z,242.11
2023-05-02T08:30:15.066Z,245.44
2023-05-02T08:31:15.191Z,243.49
2023-05-02T08:32:15.194Z,237.20
2023-05-02T08:33:15.388Z,238.55
2023-05-02T08:34:15.294Z,241.45
2023-05-02T08:35:15.336Z,248.49
2023-05-02T08:36:15.430Z,247.25
2023-05-02T08:37:15.460Z,239.90
2023-05-02T08:38:15.548Z,244.99
2023-05-02T08:39:15.588Z,247.16
2023-05-02T08:40:16.028Z,243.46
2023-05-02T08:41:15.688Z,240.90
2023-05-02T08:42:15.724Z,243.18
2023-05-02T08:43:16.287Z,242.64
2023-05-02T08:44:15.878Z,238.31
2023-05-02T08:45:16.748Z,243.97
2023-05-02T08:46:16.160Z,246.04
2023-05-02T08:47:16.100Z,246.18
2023-05-02T08:48:16.107Z,248.81
2023-05-02T08:49:16.154Z,249.70
2023-05-02T08:50:16.198Z,248.17
2023-05-02T08:51:16.246Z,248.55
2023-05-02T08:52:16.312Z,248.37
2023-05-02T08:53:16.379Z,248.60
2023-05-02T08:54:16.423Z,247.96
2023-05-02T08:55:16.519Z,247.67
2023-05-02T08:56:16.553Z,243.80
2023-05-02T08:57:16.664Z,244.70
2023-05-02T08:58:17.758Z,246.20
2023-05-02T08:59:16.728Z,243.44
2023-05-02T09:00:16.788Z,237.78
2023-05-02T09:01:16.841Z,235.97
2023-05-02T09:02:16.898Z,229.07
2023-05-02T09:03:16.974Z,219.81
2023-05-02T09:04:17.066Z,220.32
2023-05-02T09:05:17.120Z,223.23
2023-05-02T09:06:17.208Z,242.05
2023-05-02T09:07:17.203Z,234.50
2023-05-02T09:08:17.313Z,228.43
2023-05-02T09:09:19.085Z,228.26
2023-05-02T09:10:17.351Z,220.74
2023-05-02T09:11:17.437Z,223.08
2023-05-02T09:12:17.479Z,215.02
2023-05-02T09:13:17.553Z,216.45
2023-05-02T09:14:17.604Z,221.26
2023-05-02T09:15:20.543Z,225.50
2023-05-02T09:16:17.668Z,230.95
2023-05-02T09:17:17.639Z,250.00
2023-05-02T09:18:17.622Z,249.97
2023-05-02T09:19:17.595Z,241.97
2023-05-02T09:20:17.590Z,238.54
2023-05-02T09:21:20.477Z,237.83
2023-05-02T09:22:17.565Z,238.32
2023-05-02T09:23:17.570Z,238.90
2023-05-02T09:24:17.540Z,242.98
2023-05-02T09:25:17.565Z,245.51
2023-05-02T09:26:17.527Z,248.09
2023-05-02T09:27:17.523Z,245.81
2023-05-02T09:28:17.532Z,243.36
2023-05-02T09:29:17.522Z,243.92
2023-05-02T09:30:17.522Z,242.14
2023-05-02T09:31:26.999Z,239.64
2023-05-02T09:32:18.550Z,239.85
2023-05-02T09:33:19.218Z,239.78
2023-05-02T09:34:17.601Z,236.46
2023-05-02T09:35:17.512Z,237.63
2023-05-02T09:36:17.507Z,233.59
2023-05-02T09:37:17.489Z,241.72
2023-05-02T09:38:17.782Z,241.92
2023-05-02T09:39:17.507Z,243.31
2023-05-02T09:40:17.465Z,239.99
2023-05-02T09:41:17.456Z,230.15
2023-05-02T09:42:17.459Z,236.31
2023-05-02T09:43:17.485Z,230.47
2023-05-02T09:44:17.436Z,228.02
2023-05-02T09:45:17.425Z,229.06
2023-05-02T09:46:17.479Z,230.94
2023-05-02T09:47:17.463Z,227.40
2023-05-02T09:48:17.441Z,228.74
2023-05-02T09:49:17.434Z,228.62
2023-05-02T09:50:17.389Z,213.62
2023-05-02T09:51:17.373Z,203.34
2023-05-02T09:52:17.402Z,201.60
2023-05-02T09:53:17.806Z,205.76
2023-05-02T09:54:17.450Z,185.84
2023-05-02T09:55:17.513Z,182.92
2023-05-02T09:56:18.587Z,183.10
2023-05-02T09:57:17.532Z,181.85
2023-05-02T09:58:17.863Z,174.26
2023-05-02T09:59:17.612Z,167.44
2023-05-02T10:00:17.733Z,168.41
2023-05-02T10:01:17.756Z,164.83
2023-05-02T10:02:17.776Z,187.00
2023-05-02T10:03:17.944Z,170.28
2023-05-02T10:04:17.937Z,163.48
2023-05-02T10:05:18.011Z,150.10
2023-05-02T10:06:18.032Z,144.42
2023-05-02T10:07:18.045Z,153.04
2023-05-02T10:08:18.290Z,162.85
2023-05-02T10:09:21.403Z,165.97
2023-05-02T10:10:18.209Z,166.64
2023-05-02T10:11:18.111Z,169.10
2023-05-02T10:12:18.123Z,165.95
2023-05-02T10:13:18.326Z,168.63
2023-05-02T10:14:18.102Z,153.60
2023-05-02T10:15:18.100Z,148.63
2023-05-02T10:16:18.120Z,156.00
2023-05-02T10:17:18.072Z,151.87
2023-05-02T10:18:18.139Z,146.32
2023-05-02T10:19:18.071Z,145.76
2023-05-02T10:20:18.062Z,143.53
2023-05-02T10:21:18.007Z,152.57
2023-05-02T10:22:18.017Z,152.05
2023-05-02T10:23:18.014Z,149.01
2023-05-02T10:24:18.036Z,150.35
2023-05-02T10:25:18.032Z,149.61
2023-05-02T10:26:18.016Z,154.26
2023-05-02T10:27:18.024Z,163.38
2023-05-02T10:28:18.007Z,162.40
2023-05-02T10:29:18.003Z,162.48
2023-05-02T10:30:18.000Z,153.06
2023-05-02T10:31:18.003Z,138.62
2023-05-02T10:32:17.963Z,134.91
2023-05-02T10:33:17.948Z,134.68
2023-05-02T10:34:17.948Z,142.87
2023-05-02T10:35:17.938Z,138.11
2023-05-02T10:36:17.934Z,145.29
2023-05-02T10:37:17.940Z,135.59
2023-05-02T10:38:18.023Z,129.91
2023-05-02T10:39:17.919Z,138.94
2023-05-02T10:40:17.960Z,144.71
2023-05-02T10:41:17.909Z,150.92
2023-05-02T10:42:17.899Z,153.72
2023-05-02T10:43:18.239Z,151.50
2023-05-02T10:44:17.988Z,144.26
2023-05-02T10:45:17.988Z,143.19
2023-05-02T10:46:18.156Z,142.91
2023-05-02T10:47:18.103Z,146.37
2023-05-02T10:48:18.189Z,145.52
2023-05-02T10:49:18.261Z,147.28
2023-05-02T10:50:18.297Z,147.05
2023-05-02T10:51:18.335Z,147.09
2023-05-02T10:52:18.423Z,146.08
2023-05-02T10:53:18.472Z,150.29
2023-05-02T10:54:18.535Z,147.54
2023-05-02T10:55:18.576Z,153.09
2023-05-02T10:56:18.612Z,145.64
2023-05-02T10:57:18.692Z,146.02
2023-05-02T10:58:18.826Z,151.46
2023-05-02T10:59:18.792Z,149.11
2023-05-02T11:00:18.841Z,153.27
2023-05-02T11:01:18.995Z,151.90
2023-05-02T11:02:19.011Z,150.05
2023-05-02T11:03:19.383Z,140.27
2023-05-02T11:04:19.090Z,142.98
2023-05-02T11:05:19.121Z,143.84
2023-05-02T11:06:19.154Z,143.67
2023-05-02T11:07:19.275Z,145.89
2023-05-02T11:08:21.230Z,146.50
2023-05-02T11:09:19.241Z,152.14
2023-05-02T11:10:19.317Z,148.11
2023-05-02T11:11:19.267Z,152.57
2023-05-02T11:12:19.276Z,155.38
2023-05-02T11:13:19.251Z,152.93
2023-05-02T11:14:20.296Z,146.61
2023-05-02T11:15:19.233Z,150.11
2023-05-02T11:16:19.306Z,150.12
2023-05-02T11:17:19.276Z,148.55
2023-05-02T11:18:19.340Z,150.05
2023-05-02T11:19:19.231Z,150.29
2023-05-02T11:20:19.231Z,150.23
2023-05-02T11:21:19.234Z,149.60
2023-05-02T11:22:19.269Z,147.57
2023-05-02T11:23:19.330Z,147.25
2023-05-02T11:24:19.203Z,147.03
2023-05-02T11:25:19.148Z,148.56
2023-05-02T11:26:19.195Z,149.46
2023-05-02T11:27:19.155Z,146.29
2023-05-02T11:28:19.221Z,147.26
2023-05-02T11:29:19.116Z,150.17
2023-05-02T11:30:19.137Z,155.99
2023-05-02T11:31:19.125Z,159.29
2023-05-02T11:32:19.170Z,157.02
2023-05-02T11:33:19.163Z,149.32
2023-05-02T11:34:19.873Z,154.09
2023-05-02T11:35:19.130Z,153.74
2023-05-02T11:36:19.201Z,152.85
2023-05-02T11:37:19.084Z,152.34
2023-05-02T11:38:19.411Z,153.75
2023-05-02T11:39:19.248Z,159.81
2023-05-02T11:40:19.252Z,158.37
2023-05-02T11:41:19.291Z,155.80
2023-05-02T11:42:19.353Z,156.50
2023-05-02T11:43:19.385Z,156.50
2023-05-02T11:44:19.433Z,156.81
2023-05-02T11:45:19.501Z,159.48
2023-05-02T11:46:19.593Z,156.91
2023-05-02T11:47:19.600Z,158.95
2023-05-02T11:48:19.621Z,159.76
2023-05-02T11:49:19.712Z,160.15
2023-05-02T11:50:19.769Z,163.71
2023-05-02T11:51:19.832Z,163.17
2023-05-02T11:52:19.880Z,162.49
2023-05-02T11:53:19.924Z,162.06
2023-05-02T11:54:19.971Z,159.74
2023-05-02T11:55:19.994Z,163.01
2023-05-02T11:56:20.034Z,164.36
2023-05-02T11:57:20.152Z,164.00
2023-05-02T11:58:20.189Z,164.42
2023-05-02T11:59:20.213Z,162.80
2023-05-02T12:00:20.306Z,160.84
2023-05-02T12:01:20.374Z,161.56
2023-05-02T12:02:20.430Z,164.48
2023-05-02T12:03:20.567Z,162.59
2023-05-02T12:04:20.500Z,165.65
2023-05-02T12:05:20.597Z,162.74
2023-05-02T12:06:20.860Z,164.19
2023-05-02T12:07:20.652Z,163.42
2023-05-02T12:08:20.732Z,161.78
2023-05-02T12:09:21.331Z,162.32
2023-05-02T12:10:20.845Z,157.84
2023-05-02T12:11:20.894Z,160.14
2023-05-02T12:12:20.986Z,160.30
2023-05-02T12:13:20.998Z,158.77
2023-05-02T12:14:21.059Z,158.96
2023-05-02T12:15:21.104Z,157.48
2023-05-02T12:16:21.227Z,156.24
2023-05-02T12:17:21.354Z,156.28
2023-05-02T12:18:22.144Z,155.27
2023-05-02T12:19:21.367Z,156.56
2023-05-02T12:20:21.457Z,157.10
2023-05-02T12:21:21.498Z,155.96
2023-05-02T12:22:21.546Z,157.06
2023-05-02T12:23:21.881Z,156.00
2023-05-02T12:24:21.652Z,156.95
2023-05-02T12:25:21.726Z,156.04
2023-05-02T12:26:22.018Z,154.39
2023-05-02T12:27:21.878Z,155.01
2023-05-02T12:28:21.889Z,156.22
2023-05-02T12:29:21.962Z,153.17
2023-05-02T12:30:21.999Z,157.21
2023-05-02T12:31:22.161Z,159.36
2023-05-02T12:32:22.207Z,155.73
2023-05-02T12:33:22.399Z,160.66
2023-05-02T12:34:22.251Z,157.82
2023-05-02T12:35:22.311Z,158.62
2023-05-02T12:36:22.367Z,153.24
2023-05-02T12:37:22.461Z,158.66
2023-05-02T12:38:22.499Z,156.62
2023-05-02T12:39:22.576Z,156.45
2023-05-02T12:40:22.623Z,159.99
2023-05-02T12:41:22.699Z,158.23
2023-05-02T12:42:22.741Z,157.46